Time;durP1;ratioP1;P1;durP2;ratioP2;P2;SDS_P1;SDS_P2;PMS_P1;PMS_P2;Temp;Humidity;BMP_temperature;BMP_pressure;BME280_temperature;BME280_humidity;BME280_pressure;Samples;Min_cycle;Max_cycle;Signal;HPM_P1;HPM_P2
2022/04/23 00:01:44;;;;;;;;;;;11.60;99.90;;;;;;5072476;28;19909;-70
2022/04/23 00:04:10;;;;;;;;;;;11.70;99.90;;;;;;5072461;28;20008;-69
2022/04/23 00:06:36;;;;;;;;;;;11.70;99.90;;;;;;5072349;28;20289;-70
2022/04/23 00:09:02;;;;;;;;;;;11.60;99.90;;;;;;5072167;28;19913;-70
2022/04/23 00:11:27;;;;;;;;;;;11.60;99.90;;;;;;5070651;28;19916;-70
2022/04/23 00:13:53;;;;;;;;;;;11.50;99.90;;;;;;5072549;28;19999;-70
2022/04/23 00:16:19;;;;;;;;;;;11.50;99.90;;;;;;5072401;28;19909;-70
2022/04/23 00:18:45;;;;;;;;;;;11.50;99.90;;;;;;5071898;28;19909;-70
2022/04/23 00:21:10;;;;;;;;;;;11.50;99.90;;;;;;5072045;28;19969;-70
2022/04/23 00:23:36;;;;;;;;;;;11.50;99.90;;;;;;5072069;28;19908;-70
2022/04/23 00:26:01;;;;;;;;;;;11.60;99.90;;;;;;5071979;28;20377;-70
2022/04/23 00:28:27;;;;;;;;;;;11.70;99.90;;;;;;5072325;28;19947;-70
2022/04/23 00:30:52;;;;;;;;;;;11.60;99.90;;;;;;5072028;28;19985;-70
2022/04/23 00:33:18;;;;;;;;;;;11.60;99.90;;;;;;5072073;28;19908;-70
2022/04/23 00:35:44;;;;;;;;;;;11.60;99.90;;;;;;5072038;28;19927;-70
2022/04/23 00:38:09;;;;;;;;;;;11.60;99.90;;;;;;5072123;28;19908;-70
2022/04/23 00:40:35;;;;;;;;;;;11.50;99.90;;;;;;5071450;28;20000;-70
2022/04/23 00:43:01;;;;;;;;;;;11.50;99.90;;;;;;5072053;28;19908;-71
2022/04/23 00:45:27;;;;;;;;;;;11.60;99.90;;;;;;5071450;28;19909;-71
2022/04/23 00:47:53;;;;;;;;;;;11.50;99.90;;;;;;5071840;28;19919;-71
2022/04/23 00:50:21;;;;;;;;;;;11.30;99.90;;;;;;5071894;28;19909;-71
2022/04/23 00:52:50;;;;;;;;;;;11.30;99.90;;;;;;5072412;28;19908;-70
2022/04/23 00:55:16;;;;;;;;;;;11.40;99.90;;;;;;5072209;28;19931;-71
2022/04/23 00:57:42;;;;;;;;;;;11.40;99.90;;;;;;5072298;28;20356;-70
2022/04/23 01:00:08;;;;;;;;;;;11.40;99.90;;;;;;5071715;28;19941;-70
2022/04/23 01:02:34;;;;;;;;;;;11.40;99.90;;;;;;5072306;28;19913;-70
2022/04/23 01:04:59;;;;;;;;;;;11.20;99.90;;;;;;5072345;28;20340;-70
2022/04/23 01:07:25;;;;;;;;;;;11.20;99.90;;;;;;5072003;28;20445;-70
2022/04/23 01:09:51;;;;;;;;;;;11.20;99.90;;;;;;5071405;28;19954;-70
2022/04/23 01:12:17;;;;;;;;;;;11.30;99.90;;;;;;5071675;28;19913;-71
2022/04/23 01:14:55;;;;;;;;;;;11.40;99.90;;;;;;5072055;28;19997;-70
2022/04/23 01:17:21;;;;;;;;;;;11.40;99.90;;;;;;5071603;28;19969;-70
2022/04/23 01:19:46;;;;;;;;;;;11.40;99.90;;;;;;5071334;28;19909;-70
2022/04/23 01:22:12;;;;;;;;;;;11.40;99.90;;;;;;5071350;28;19999;-70
2022/04/23 01:24:37;;;;;;;;;;;11.40;99.90;;;;;;5071781;28;20114;-70
2022/04/23 01:27:04;;;;;;;;;;;11.30;99.90;;;;;;5071627;28;19912;-69
2022/04/23 01:29:30;;;;;;;;;;;11.20;99.90;;;;;;5071367;28;19909;-70
2022/04/23 01:31:55;;;;;;;;;;;11.20;99.90;;;;;;5071596;28;20388;-70
2022/04/23 01:34:20;;;;;;;;;;;11.20;99.90;;;;;;5071385;28;20389;-69
2022/04/23 01:36:46;;;;;;;;;;;11.20;99.90;;;;;;5071490;28;20418;-70
2022/04/23 01:39:11;;;;;;;;;;;11.20;99.90;;;;;;5070937;28;19920;-70
2022/04/23 01:41:37;;;;;;;;;;;11.20;99.90;;;;;;5071534;28;20280;-69
2022/04/23 01:44:02;;;;;;;;;;;11.20;99.90;;;;;;5071274;28;20359;-69
2022/04/23 01:46:28;;;;;;;;;;;11.10;99.90;;;;;;5071276;28;20342;-71
2022/04/23 01:48:53;;;;;;;;;;;11.00;99.90;;;;;;5071371;28;20383;-70
2022/04/23 01:51:18;;;;;;;;;;;11.00;99.90;;;;;;5071023;28;19909;-70
2022/04/23 01:53:44;;;;;;;;;;;10.90;99.90;;;;;;5070278;28;19908;-70
2022/04/23 01:56:11;;;;;;;;;;;10.90;99.90;;;;;;5071468;28;19916;-69
2022/04/23 01:58:36;;;;;;;;;;;11.00;99.90;;;;;;5074938;28;19916;-70
2022/04/23 02:01:02;;;;;;;;;;;11.00;99.90;;;;;;5074503;28;20393;-70
2022/04/23 02:03:29;;;;;;;;;;;10.90;99.90;;;;;;5074783;28;19909;-70
2022/04/23 02:05:55;;;;;;;;;;;10.90;99.90;;;;;;5074498;28;19913;-70
2022/04/23 02:08:20;;;;;;;;;;;10.80;99.90;;;;;;5074726;28;19909;-69
2022/04/23 02:10:47;;;;;;;;;;;10.80;99.90;;;;;;5074322;28;19916;-70
2022/04/23 02:13:12;;;;;;;;;;;10.80;99.90;;;;;;5074802;28;20409;-70
2022/04/23 02:15:40;;;;;;;;;;;10.70;99.90;;;;;;5074600;28;19916;-69
2022/04/23 02:18:06;;;;;;;;;;;10.70;99.90;;;;;;5074412;28;19909;-70
2022/04/23 02:20:32;;;;;;;;;;;10.70;99.90;;;;;;5073822;28;19915;-70
2022/04/23 02:22:57;;;;;;;;;;;10.70;99.90;;;;;;5074544;28;19952;-70
2022/04/23 02:25:22;;;;;;;;;;;10.70;99.90;;;;;;5074442;28;19913;-69
2022/04/23 02:27:48;;;;;;;;;;;10.80;99.90;;;;;;5074228;28;19965;-70
2022/04/23 02:30:15;;;;;;;;;;;10.80;99.90;;;;;;5074067;28;19973;-70
2022/04/23 02:32:41;;;;;;;;;;;10.80;99.90;;;;;;5074122;28;19909;-69
2022/04/23 02:35:07;;;;;;;;;;;10.70;99.90;;;;;;5074262;28;20043;-69
2022/04/23 02:37:34;;;;;;;;;;;10.70;99.90;;;;;;5074215;28;19959;-70
2022/04/23 02:40:07;;;;;;;;;;;10.70;99.90;;;;;;5073753;28;19924;-70
2022/04/23 02:42:39;;;;;;;;;;;10.60;99.90;;;;;;5094008;22;19909;-68
2022/04/23 02:45:09;;;;;;;;;;;10.70;99.90;;;;;;5033696;28;19999;-68
2022/04/23 02:47:44;;;;;;;;;;;10.70;99.90;;;;;;5034316;28;19928;-68
2022/04/23 02:50:10;;;;;;;;;;;10.80;99.90;;;;;;5034117;28;19940;-67
2022/04/23 02:52:36;;;;;;;;;;;10.80;99.90;;;;;;5033956;28;19909;-67
2022/04/23 02:55:01;;;;;;;;;;;10.80;99.90;;;;;;5034249;28;20397;-66
2022/04/23 02:57:27;;;;;;;;;;;10.80;99.90;;;;;;5034418;28;19909;-67
2022/04/23 02:59:52;;;;;;;;;;;10.80;99.90;;;;;;5033832;28;19964;-67
2022/04/23 03:02:18;;;;;;;;;;;10.80;99.90;;;;;;5034381;28;19913;-66
2022/04/23 03:04:43;;;;;;;;;;;10.80;99.90;;;;;;5037035;28;19910;-68
2022/04/23 03:07:10;;;;;;;;;;;10.80;99.90;;;;;;5035562;28;19913;-68
2022/04/23 03:09:36;;;;;;;;;;;10.80;99.90;;;;;;5033140;28;19909;-68
2022/04/23 03:12:01;;;;;;;;;;;10.80;99.90;;;;;;5034030;28;20388;-67
2022/04/23 03:14:27;;;;;;;;;;;10.80;99.90;;;;;;5033759;28;19917;-68
2022/04/23 03:16:52;;;;;;;;;;;10.80;99.90;;;;;;5032448;28;20004;-67
2022/04/23 03:19:18;;;;;;;;;;;10.80;99.90;;;;;;5033583;28;20104;-68
2022/04/23 03:21:43;;;;;;;;;;;10.80;99.90;;;;;;5033778;28;20019;-67
2022/04/23 03:24:09;;;;;;;;;;;10.80;99.90;;;;;;5048856;28;19909;-67
2022/04/23 03:26:34;;;;;;;;;;;10.80;99.90;;;;;;5033463;28;20270;-66
2022/04/23 03:29:00;;;;;;;;;;;10.80;99.90;;;;;;5033791;28;20031;-68
2022/04/23 03:31:25;;;;;;;;;;;10.70;99.90;;;;;;5033296;28;19909;-68
2022/04/23 03:33:50;;;;;;;;;;;10.60;99.90;;;;;;5033522;28;19909;-68
2022/04/23 03:36:17;;;;;;;;;;;10.70;99.90;;;;;;5033698;28;19909;-67
2022/04/23 03:38:43;;;;;;;;;;;10.70;99.90;;;;;;5048804;28;19927;-66
2022/04/23 03:41:09;;;;;;;;;;;10.70;99.90;;;;;;5033071;28;19996;-68
2022/04/23 03:43:34;;;;;;;;;;;10.60;99.90;;;;;;5033226;28;19925;-67
2022/04/23 03:45:59;;;;;;;;;;;10.70;99.90;;;;;;5048352;28;19955;-67
2022/04/23 03:48:25;;;;;;;;;;;10.70;99.90;;;;;;5033620;28;19952;-68
2022/04/23 03:50:50;;;;;;;;;;;10.50;99.90;;;;;;5033157;28;19909;-68
2022/04/23 03:53:16;;;;;;;;;;;10.40;99.90;;;;;;5033145;28;20003;-67
2022/04/23 03:55:41;;;;;;;;;;;10.30;99.90;;;;;;5032916;28;19967;-68
2022/04/23 03:58:07;;;;;;;;;;;10.40;99.90;;;;;;5033171;28;19910;-68
2022/04/23 04:00:34;;;;;;;;;;;10.50;99.90;;;;;;5032868;28;19916;-67
2022/04/23 04:02:59;;;;;;;;;;;10.40;99.90;;;;;;5048354;28;20009;-68
2022/04/23 04:05:25;;;;;;;;;;;10.50;99.90;;;;;;5033044;28;19980;-68
2022/04/23 04:07:51;;;;;;;;;;;10.60;99.90;;;;;;5032979;28;19963;-68
2022/04/23 04:10:17;;;;;;;;;;;10.60;99.90;;;;;;5032560;28;20342;-67
2022/04/23 04:12:43;;;;;;;;;;;10.60;99.90;;;;;;5032653;28;20370;-68
2022/04/23 04:15:15;;;;;;;;;;;10.60;99.90;;;;;;5033154;28;20001;-68
2022/04/23 04:17:41;;;;;;;;;;;10.60;99.90;;;;;;5032796;28;20298;-67
2022/04/23 04:20:08;;;;;;;;;;;10.50;99.90;;;;;;5040521;28;19906;-68
2022/04/23 04:22:34;;;;;;;;;;;10.60;99.90;;;;;;5032802;28;19916;-68
2022/04/23 04:25:00;;;;;;;;;;;10.60;99.90;;;;;;5032600;28;20290;-69
2022/04/23 04:27:26;;;;;;;;;;;10.50;99.90;;;;;;5032394;28;20002;-68
2022/04/23 04:29:51;;;;;;;;;;;10.50;99.90;;;;;;5032095;28;20350;-68
2022/04/23 04:32:17;;;;;;;;;;;10.50;99.90;;;;;;5032519;28;19909;-67
2022/04/23 04:34:42;;;;;;;;;;;10.50;99.90;;;;;;5032381;28;19938;-68
2022/04/23 04:37:09;;;;;;;;;;;10.40;99.90;;;;;;5031937;28;19959;-68
2022/04/23 04:39:35;;;;;;;;;;;10.40;99.90;;;;;;5031097;28;19914;-68
2022/04/23 04:42:01;;;;;;;;;;;10.30;99.90;;;;;;5032371;28;19917;-68
2022/04/23 04:44:26;;;;;;;;;;;10.30;99.90;;;;;;5032167;28;19917;-68
2022/04/23 04:46:52;;;;;;;;;;;10.30;99.90;;;;;;5032454;28;19940;-68
2022/04/23 04:49:17;;;;;;;;;;;10.40;99.90;;;;;;5031839;28;20378;-67
2022/04/23 04:51:43;;;;;;;;;;;10.40;99.90;;;;;;5032485;28;20378;-68
2022/04/23 04:54:08;;;;;;;;;;;10.40;99.90;;;;;;5032127;28;19932;-68
2022/04/23 04:56:34;;;;;;;;;;;10.50;99.90;;;;;;5032540;28;19913;-68
2022/04/23 04:59:00;;;;;;;;;;;10.50;99.90;;;;;;5031900;28;20363;-68
2022/04/23 05:01:26;;;;;;;;;;;10.50;99.90;;;;;;5031834;28;19941;-67
2022/04/23 05:03:53;;;;;;;;;;;10.50;99.90;;;;;;5031776;28;20002;-68
2022/04/23 05:06:19;;;;;;;;;;;10.50;99.90;;;;;;5032076;28;19915;-68
2022/04/23 05:08:45;;;;;;;;;;;10.50;99.90;;;;;;5031932;28;19924;-69
2022/04/23 05:11:11;;;;;;;;;;;10.60;99.90;;;;;;5031580;28;19916;-69
2022/04/23 05:13:37;;;;;;;;;;;10.50;99.90;;;;;;5031785;28;19909;-67
2022/04/23 05:16:06;;;;;;;;;;;10.50;99.90;;;;;;5031840;28;20350;-68
2022/04/23 05:18:32;;;;;;;;;;;10.50;99.90;;;;;;5031949;28;19915;-68
2022/04/23 05:20:58;;;;;;;;;;;10.60;99.90;;;;;;5031833;28;19909;-68
2022/04/23 05:23:23;;;;;;;;;;;10.70;99.90;;;;;;5031783;28;19921;-68
2022/04/23 05:25:48;;;;;;;;;;;10.70;99.90;;;;;;5031855;28;20020;-67
2022/04/23 05:28:14;;;;;;;;;;;10.80;99.90;;;;;;5031770;28;20422;-68
2022/04/23 05:30:39;;;;;;;;;;;10.80;99.90;;;;;;5031829;28;19944;-68
2022/04/23 05:33:05;;;;;;;;;;;10.80;99.90;;;;;;5042755;28;19943;-68
2022/04/23 05:35:31;;;;;;;;;;;10.80;99.90;;;;;;5038666;28;20703;-66
2022/04/23 05:37:56;;;;;;;;;;;10.90;99.90;;;;;;5035255;28;19910;-68
2022/04/23 05:40:22;;;;;;;;;;;10.90;99.90;;;;;;5035154;28;19919;-68
2022/04/23 05:42:47;;;;;;;;;;;10.90;99.90;;;;;;5035217;28;19917;-67
2022/04/23 05:45:12;;;;;;;;;;;10.90;99.90;;;;;;5035297;28;19928;-68
2022/04/23 05:47:41;;;;;;;;;;;10.80;99.90;;;;;;5035244;28;19967;-68
2022/04/23 05:50:08;;;;;;;;;;;10.80;99.90;;;;;;5034961;28;19909;-69
2022/04/23 05:52:34;;;;;;;;;;;10.70;99.90;;;;;;5050573;28;19940;-67
2022/04/23 05:55:00;;;;;;;;;;;10.70;99.90;;;;;;5035273;28;19913;-67
2022/04/23 05:57:25;;;;;;;;;;;10.80;99.90;;;;;;5035025;28;19932;-68
2022/04/23 05:59:51;;;;;;;;;;;10.90;99.90;;;;;;5035015;28;19913;-68
2022/04/23 06:02:16;;;;;;;;;;;11.00;99.90;;;;;;5035109;28;19909;-68
2022/04/23 06:04:41;;;;;;;;;;;11.10;99.90;;;;;;5035088;28;20369;-68
2022/04/23 06:07:07;;;;;;;;;;;11.20;99.90;;;;;;5035062;28;19913;-68
2022/04/23 06:09:32;;;;;;;;;;;11.20;99.90;;;;;;5034634;28;19917;-68
2022/04/23 06:11:58;;;;;;;;;;;11.30;99.90;;;;;;5035237;28;20289;-68
2022/04/23 06:14:23;;;;;;;;;;;11.30;99.90;;;;;;5034959;28;19913;-67
2022/04/23 06:16:49;;;;;;;;;;;11.40;99.90;;;;;;5035026;28;20454;-67
2022/04/23 06:19:14;;;;;;;;;;;11.50;99.90;;;;;;5050067;28;20389;-67
2022/04/23 06:21:39;;;;;;;;;;;11.60;99.90;;;;;;5034752;28;19946;-68
2022/04/23 06:24:05;;;;;;;;;;;11.70;99.90;;;;;;5034693;28;19909;-68
2022/04/23 06:26:31;;;;;;;;;;;11.70;99.90;;;;;;5034742;28;20016;-66
2022/04/23 06:28:57;;;;;;;;;;;11.80;99.90;;;;;;5034747;28;19916;-66
2022/04/23 06:31:22;;;;;;;;;;;11.80;99.90;;;;;;5034542;28;20326;-68
2022/04/23 06:33:47;;;;;;;;;;;11.80;99.90;;;;;;5034613;28;19978;-68
2022/04/23 06:36:13;;;;;;;;;;;11.80;99.90;;;;;;5034467;28;19913;-67
2022/04/23 06:38:39;;;;;;;;;;;11.80;99.90;;;;;;5034314;28;19933;-68
2022/04/23 06:41:04;;;;;;;;;;;11.90;99.90;;;;;;5034304;28;19916;-68
2022/04/23 06:43:30;;;;;;;;;;;12.00;99.90;;;;;;5032934;28;19917;-68
2022/04/23 06:45:55;;;;;;;;;;;12.10;99.90;;;;;;5034495;28;19956;-67
2022/04/23 06:48:20;;;;;;;;;;;12.20;99.90;;;;;;5034389;28;19917;-67
2022/04/23 06:50:46;;;;;;;;;;;12.30;99.90;;;;;;5034176;28;20321;-68
2022/04/23 06:53:11;;;;;;;;;;;12.40;99.90;;;;;;5016031;28;20260;-65
2022/04/23 06:55:37;;;;;;;;;;;12.50;99.90;;;;;;5013183;28;19944;-67
2022/04/23 06:58:02;;;;;;;;;;;12.70;99.90;;;;;;5012038;28;19979;-67
2022/04/23 07:00:28;;;;;;;;;;;12.70;99.90;;;;;;5012951;28;19913;-67
2022/04/23 07:02:54;;;;;;;;;;;12.80;99.90;;;;;;5012561;28;20481;-68
2022/04/23 07:05:20;;;;;;;;;;;12.90;99.90;;;;;;5012380;28;19917;-67
2022/04/23 07:07:59;;;;;;;;;;;13.00;99.90;;;;;;5029480;28;19913;-69
2022/04/23 07:10:25;;;;;;;;;;;13.10;99.90;;;;;;5015023;28;20498;-66
2022/04/23 07:12:52;;;;;;;;;;;13.30;99.90;;;;;;5013467;28;19910;-67
2022/04/23 07:15:18;;;;;;;;;;;13.40;99.90;;;;;;5012981;28;19909;-68
2022/04/23 07:17:43;;;;;;;;;;;13.50;99.90;;;;;;5013330;28;19960;-67
2022/04/23 07:20:09;;;;;;;;;;;13.60;99.90;;;;;;5012503;28;19948;-67
2022/04/23 07:22:35;;;;;;;;;;;13.60;99.90;;;;;;5012194;28;19953;-67
2022/04/23 07:25:00;;;;;;;;;;;13.70;99.90;;;;;;5012755;28;20413;-64
2022/04/23 07:27:27;;;;;;;;;;;13.80;99.90;;;;;;5012703;28;19949;-67
2022/04/23 07:29:53;;;;;;;;;;;13.80;99.90;;;;;;5013187;28;20000;-66
2022/04/23 07:32:20;;;;;;;;;;;13.90;99.90;;;;;;5012425;28;20470;-67
2022/04/23 07:37:28;;;;;;;;;;;14.10;99.90;;;;;;5012872;28;19959;-67
2022/04/23 07:37:34;;;;;;;;;;;14.20;99.90;;;;;;5012116;28;19914;-69
2022/04/23 07:40:01;;;;;;;;;;;14.20;99.90;;;;;;5011983;28;19914;-67
2022/04/23 07:42:27;;;;;;;;;;;14.10;99.90;;;;;;5012919;28;19916;-69
2022/04/23 07:44:52;;;;;;;;;;;14.10;99.90;;;;;;5020999;28;19913;-67
2022/04/23 07:47:18;;;;;;;;;;;14.30;99.90;;;;;;5027319;28;19913;-67
2022/04/23 07:49:44;;;;;;;;;;;14.40;99.90;;;;;;5032351;28;20012;-67
2022/04/23 07:52:09;;;;;;;;;;;14.60;99.90;;;;;;5013382;28;19953;-67
2022/04/23 07:54:38;;;;;;;;;;;14.60;99.90;;;;;;5012514;28;19916;-67
2022/04/23 07:57:07;;;;;;;;;;;14.70;99.90;;;;;;5011711;28;20276;-66
2022/04/23 07:59:32;;;;;;;;;;;14.70;99.90;;;;;;5012606;28;20283;-69
2022/04/23 08:01:58;;;;;;;;;;;14.70;99.90;;;;;;5012718;28;19996;-67
2022/04/23 08:04:23;;;;;;;;;;;14.90;99.90;;;;;;5012943;28;20020;-68
2022/04/23 08:06:49;;;;;;;;;;;15.00;99.80;;;;;;5011031;28;20469;-68
2022/04/23 08:09:14;;;;;;;;;;;15.10;99.30;;;;;;5010793;28;19916;-67
2022/04/23 08:11:40;;;;;;;;;;;15.10;98.90;;;;;;5010756;28;19920;-68
2022/04/23 08:14:05;;;;;;;;;;;15.20;98.50;;;;;;5010960;28;20314;-68
2022/04/23 08:16:31;;;;;;;;;;;15.20;98.60;;;;;;5011111;28;19910;-68
2022/04/23 08:18:56;;;;;;;;;;;15.20;98.10;;;;;;5011355;28;19916;-68
2022/04/23 08:21:22;;;;;;;;;;;15.30;97.90;;;;;;5026981;28;19909;-67
2022/04/23 08:23:48;;;;;;;;;;;15.40;97.90;;;;;;5012953;28;19937;-68
2022/04/23 08:26:13;;;;;;;;;;;15.50;97.50;;;;;;5012770;28;19967;-68
2022/04/23 08:31:22;;;;;;;;;;;15.70;97.40;;;;;;5012690;28;20509;-69
2022/04/23 08:34:03;;;;;;;;;;;15.70;97.00;;;;;;5012950;28;19944;-68
2022/04/23 08:36:36;;;;;;;;;;;15.90;97.20;;;;;;5012604;28;19909;-68
2022/04/23 08:39:04;;;;;;;;;;;15.80;96.60;;;;;;5012888;28;19915;-67
2022/04/23 08:41:30;;;;;;;;;;;15.90;96.60;;;;;;5012390;28;19916;-68
2022/04/23 08:43:56;;;;;;;;;;;16.10;96.20;;;;;;5042472;22;19933;-71
2022/04/23 08:46:23;;;;;;;;;;;16.20;95.90;;;;;;5042046;28;19910;-70
2022/04/23 08:48:49;;;;;;;;;;;16.30;95.80;;;;;;5032143;28;19913;-71
2022/04/23 08:51:17;;;;;;;;;;;16.40;95.60;;;;;;5031684;28;19910;-72
2022/04/23 08:53:45;;;;;;;;;;;16.40;95.60;;;;;;5031996;28;19982;-71
2022/04/23 08:56:10;;;;;;;;;;;16.50;95.40;;;;;;5031759;28;20006;-71
2022/04/23 08:58:38;;;;;;;;;;;16.60;94.90;;;;;;5032120;28;19948;-71
2022/04/23 09:01:03;;;;;;;;;;;16.80;94.60;;;;;;5031854;28;19916;-71
2022/04/23 09:03:28;;;;;;;;;;;16.80;94.10;;;;;;5047093;28;19909;-71
2022/04/23 09:05:54;;;;;;;;;;;16.80;94.00;;;;;;5047166;28;19995;-70
2022/04/23 09:08:19;;;;;;;;;;;17.00;94.20;;;;;;5035762;28;20431;-72
2022/04/23 09:10:45;;;;;;;;;;;17.10;94.10;;;;;;5035619;28;20390;-72
2022/04/23 09:13:11;;;;;;;;;;;17.10;93.70;;;;;;5036125;28;19956;-71
2022/04/23 09:24:09;;;;;;;;;;;17.20;93.00;;;;;;5036020;28;19954;-70
2022/04/23 09:26:34;;;;;;;;;;;17.30;92.80;;;;;;5035717;28;19913;-71
2022/04/23 09:29:11;;;;;;;;;;;17.30;92.70;;;;;;5035301;28;19916;-72
2022/04/23 09:31:36;;;;;;;;;;;17.40;92.60;;;;;;5035501;28;19913;-72
2022/04/23 09:34:13;;;;;;;;;;;17.50;92.40;;;;;;5035476;28;20289;-72
2022/04/23 09:36:45;;;;;;;;;;;17.60;92.10;;;;;;5035311;28;20014;-72
2022/04/23 09:39:11;;;;;;;;;;;17.60;91.80;;;;;;5034984;28;20282;-72
2022/04/23 09:41:36;;;;;;;;;;;17.50;91.60;;;;;;5035263;28;19916;-71
2022/04/23 09:44:05;;;;;;;;;;;17.30;92.00;;;;;;5034958;28;19917;-72
2022/04/23 09:46:43;;;;;;;;;;;17.40;92.30;;;;;;5035611;28;20307;-72
2022/04/23 09:49:09;;;;;;;;;;;17.30;92.20;;;;;;5050233;28;19999;-72
2022/04/23 09:51:35;;;;;;;;;;;17.40;92.00;;;;;;5035045;28;20015;-72
2022/04/23 09:54:02;;;;;;;;;;;17.50;92.20;;;;;;5035095;28;19913;-72
2022/04/23 09:56:28;;;;;;;;;;;17.60;91.80;;;;;;5035300;28;19917;-71
2022/04/23 09:58:54;;;;;;;;;;;17.90;91.70;;;;;;5034957;28;19936;-72
2022/04/23 10:01:20;;;;;;;;;;;18.10;91.50;;;;;;5035179;28;20316;-72
2022/04/23 10:03:50;;;;;;;;;;;18.50;91.20;;;;;;5035114;28;19912;-72
2022/04/23 10:06:17;;;;;;;;;;;18.40;90.00;;;;;;5035227;28;20378;-72
2022/04/23 10:08:45;;;;;;;;;;;18.40;90.20;;;;;;5035382;28;19913;-71
2022/04/23 10:11:10;;;;;;;;;;;18.30;89.80;;;;;;5034969;28;19913;-70
2022/04/23 10:13:38;;;;;;;;;;;18.30;90.30;;;;;;5034792;28;20382;-71
2022/04/23 10:16:04;;;;;;;;;;;18.30;90.20;;;;;;5034983;28;19909;-72
2022/04/23 10:18:29;;;;;;;;;;;18.30;89.90;;;;;;5034761;28;19910;-72
2022/04/23 10:20:58;;;;;;;;;;;18.20;89.20;;;;;;5034439;28;20386;-72
2022/04/23 10:23:29;;;;;;;;;;;18.40;89.30;;;;;;5034232;28;19917;-71
2022/04/23 10:26:01;;;;;;;;;;;18.60;89.10;;;;;;5034953;28;20367;-71
2022/04/23 10:28:26;;;;;;;;;;;18.80;88.40;;;;;;5037332;28;19917;-70
2022/04/23 10:31:11;;;;;;;;;;;18.90;88.00;;;;;;5051112;28;19916;-70
2022/04/23 10:33:42;;;;;;;;;;;19.00;87.10;;;;;;5049717;28;19941;-71
2022/04/23 10:36:10;;;;;;;;;;;19.20;86.60;;;;;;5034382;28;19917;-71
2022/04/23 10:38:38;;;;;;;;;;;19.30;85.60;;;;;;5034458;28;19909;-71
2022/04/23 10:41:05;;;;;;;;;;;19.30;85.60;;;;;;5040603;28;20622;-70
2022/04/23 10:43:31;;;;;;;;;;;19.20;85.40;;;;;;5050099;28;19912;-70
2022/04/23 10:45:56;;;;;;;;;;;19.10;85.50;;;;;;5049681;28;19985;-70
2022/04/23 10:48:25;;;;;;;;;;;19.00;85.40;;;;;;5049326;28;19916;-69
2022/04/23 10:50:57;;;;;;;;;;;19.00;85.50;;;;;;5049611;28;19978;-70
2022/04/23 10:53:47;;;;;;;;;;;19.00;85.00;;;;;;5050140;28;20059;-70
2022/04/23 10:56:15;;;;;;;;;;;19.10;85.00;;;;;;5049884;28;19917;-71
2022/04/23 10:58:41;;;;;;;;;;;19.20;84.40;;;;;;5043935;28;19912;-70
2022/04/23 11:01:22;;;;;;;;;;;19.10;84.50;;;;;;5051533;28;19920;-71
2022/04/23 11:03:54;;;;;;;;;;;19.20;85.20;;;;;;5051944;28;19979;-71
2022/04/23 11:12:25;;;;;;;;;;;19.60;83.10;;;;;;5051759;28;19916;-71
2022/04/23 11:14:52;;;;;;;;;;;19.60;82.40;;;;;;5035195;28;19953;-71
2022/04/23 11:17:38;;;;;;;;;;;19.60;82.00;;;;;;5046421;28;19913;-71
2022/04/23 11:20:04;;;;;;;;;;;19.30;81.90;;;;;;5031379;28;20393;-71
2022/04/23 11:22:30;;;;;;;;;;;19.10;81.80;;;;;;5046642;28;19913;-70
2022/04/23 11:24:57;;;;;;;;;;;19.00;82.00;;;;;;5047356;28;20696;-71
2022/04/23 11:27:26;;;;;;;;;;;18.90;82.50;;;;;;5047472;28;19916;-71
2022/04/23 11:29:52;;;;;;;;;;;18.90;82.90;;;;;;5046426;28;20316;-71
2022/04/23 11:32:27;;;;;;;;;;;18.90;82.40;;;;;;5047292;28;19912;-70
2022/04/23 11:35:04;;;;;;;;;;;18.80;81.80;;;;;;5048989;28;19920;-70
2022/04/23 11:37:32;;;;;;;;;;;18.60;81.60;;;;;;5048877;28;19909;-70
2022/04/23 11:40:11;;;;;;;;;;;18.40;83.00;;;;;;5048765;28;20396;-71
2022/04/23 11:42:37;;;;;;;;;;;18.40;83.40;;;;;;5049363;28;20647;-70
2022/04/23 11:45:03;;;;;;;;;;;18.30;83.10;;;;;;5049124;28;19986;-71
2022/04/23 11:47:29;;;;;;;;;;;18.40;83.70;;;;;;5048652;28;19920;-70
2022/04/23 11:49:55;;;;;;;;;;;18.30;83.20;;;;;;5048502;28;19991;-70
2022/04/23 11:52:23;;;;;;;;;;;18.30;82.60;;;;;;5048756;28;20032;-70
2022/04/23 11:54:50;;;;;;;;;;;18.40;82.50;;;;;;5048853;28;19923;-70
2022/04/23 11:57:17;;;;;;;;;;;18.40;82.80;;;;;;5049282;28;19913;-70
2022/04/23 11:59:44;;;;;;;;;;;18.50;82.30;;;;;;5048258;28;19919;-70
2022/04/23 12:02:23;;;;;;;;;;;18.30;82.50;;;;;;5048479;28;19936;-70
2022/04/23 12:04:57;;;;;;;;;;;18.40;82.90;;;;;;5048654;28;20290;-71
2022/04/23 12:07:23;;;;;;;;;;;18.40;82.20;;;;;;5047674;28;19978;-70
2022/04/23 12:09:55;;;;;;;;;;;18.40;82.10;;;;;;5047604;28;20456;-70
2022/04/23 12:12:22;;;;;;;;;;;18.50;82.30;;;;;;5044968;28;19981;-70
2022/04/23 12:14:51;;;;;;;;;;;18.50;82.50;;;;;;5050465;28;19985;-70
2022/04/23 12:17:26;;;;;;;;;;;18.70;81.90;;;;;;5049052;28;20007;-69
2022/04/23 12:19:54;;;;;;;;;;;18.90;81.30;;;;;;5049085;28;19952;-70
2022/04/23 12:22:23;;;;;;;;;;;19.00;80.50;;;;;;5049635;28;19951;-70
2022/04/23 12:24:49;;;;;;;;;;;19.00;80.10;;;;;;5050091;28;19921;-70
2022/04/23 12:27:14;;;;;;;;;;;19.00;80.20;;;;;;5049783;28;19967;-70
2022/04/23 12:40:51;;;;;;;;;;;18.90;81.10;;;;;;5051353;28;20058;-70
2022/04/23 12:43:24;;;;;;;;;;;18.90;81.00;;;;;;5050402;28;19909;-70
2022/04/23 12:45:50;;;;;;;;;;;18.90;80.20;;;;;;5052094;28;19917;-70
2022/04/23 12:48:16;;;;;;;;;;;18.60;79.80;;;;;;5051850;28;19920;-70
2022/04/23 12:50:45;;;;;;;;;;;18.60;80.40;;;;;;5051978;28;19935;-70
2022/04/23 12:53:11;;;;;;;;;;;18.50;80.20;;;;;;5052095;28;20431;-70
2022/04/23 12:55:37;;;;;;;;;;;18.60;80.70;;;;;;5051769;28;19913;-69
2022/04/23 12:58:02;;;;;;;;;;;18.70;80.80;;;;;;5052021;28;19908;-70
2022/04/23 13:00:29;;;;;;;;;;;18.80;80.70;;;;;;5051439;28;19962;-70
2022/04/23 13:03:00;;;;;;;;;;;19.00;80.60;;;;;;5051871;28;19909;-70
2022/04/23 13:05:26;;;;;;;;;;;19.10;80.20;;;;;;5051640;28;19913;-70
2022/04/23 13:10:36;;;;;;;;;;;19.40;79.30;;;;;;5051787;28;19951;-70
2022/04/23 13:13:02;;;;;;;;;;;19.60;78.80;;;;;;5051890;28;20285;-71
2022/04/23 13:15:28;;;;;;;;;;;19.60;78.00;;;;;;5051762;28;19909;-70
2022/04/23 13:17:53;;;;;;;;;;;19.70;78.00;;;;;;5052515;28;19916;-71
2022/04/23 13:20:19;;;;;;;;;;;19.60;76.40;;;;;;5052560;28;19916;-71
2022/04/23 13:22:45;;;;;;;;;;;19.20;77.30;;;;;;5052213;28;19994;-71
2022/04/23 13:25:15;;;;;;;;;;;19.10;78.20;;;;;;5052511;28;20277;-71
2022/04/23 13:27:40;;;;;;;;;;;19.40;78.20;;;;;;5052542;28;19913;-71
2022/04/23 13:30:07;;;;;;;;;;;19.60;77.60;;;;;;5051627;28;19909;-71
2022/04/23 13:32:34;;;;;;;;;;;19.80;76.60;;;;;;5051618;28;19909;-71
2022/04/23 13:34:59;;;;;;;;;;;19.80;75.50;;;;;;5051445;28;19909;-71
2022/04/23 13:37:25;;;;;;;;;;;19.80;75.70;;;;;;5050982;28;19909;-71
2022/04/23 13:39:50;;;;;;;;;;;19.80;75.70;;;;;;5051450;28;20345;-71
2022/04/23 13:42:17;;;;;;;;;;;19.80;75.80;;;;;;5045686;28;19958;-71
2022/04/23 13:44:43;;;;;;;;;;;19.70;75.90;;;;;;5051097;28;19956;-71
2022/04/23 13:47:09;;;;;;;;;;;19.40;74.80;;;;;;5051452;28;19948;-71
2022/04/23 13:49:35;;;;;;;;;;;19.20;75.80;;;;;;5050781;28;19908;-71
2022/04/23 13:52:01;;;;;;;;;;;19.30;76.00;;;;;;5051576;28;19979;-71
2022/04/23 13:54:26;;;;;;;;;;;19.40;76.10;;;;;;5055204;28;19916;-71
2022/04/23 13:56:52;;;;;;;;;;;19.40;75.70;;;;;;5055022;28;19915;-71
2022/04/23 13:59:17;;;;;;;;;;;19.50;75.80;;;;;;5054768;28;19912;-71
2022/04/23 14:10:04;;;;;;;;;;;19.30;76.70;;;;;;5054898;28;19919;-71
2022/04/23 14:10:07;;;;;;;;;;;19.10;77.50;;;;;;5049369;28;20027;-71
2022/04/23 14:12:33;;;;;;;;;;;18.80;78.00;;;;;;5049654;28;20675;-70
2022/04/23 14:14:58;;;;;;;;;;;18.80;77.70;;;;;;5048292;28;19920;-70
2022/04/23 14:17:23;;;;;;;;;;;18.80;78.00;;;;;;5050611;28;19912;-71
2022/04/23 14:19:49;;;;;;;;;;;18.80;78.10;;;;;;5050225;28;19917;-71
2022/04/23 14:22:15;;;;;;;;;;;18.70;77.90;;;;;;5050606;28;19921;-71
2022/04/23 14:24:40;;;;;;;;;;;18.40;78.90;;;;;;5050651;28;19912;-70
2022/04/23 14:27:06;;;;;;;;;;;18.30;78.50;;;;;;5050698;28;19955;-70
2022/04/23 14:29:31;;;;;;;;;;;18.30;79.10;;;;;;5050019;28;20008;-70
2022/04/23 14:31:58;;;;;;;;;;;18.40;79.20;;;;;;5050396;28;19920;-70
2022/04/23 14:34:23;;;;;;;;;;;18.60;78.80;;;;;;5049978;28;19967;-70
2022/04/23 14:36:49;;;;;;;;;;;18.80;78.40;;;;;;5048154;28;19916;-70
2022/04/23 14:39:14;;;;;;;;;;;18.70;78.00;;;;;;5049443;28;20571;-70
2022/04/23 14:41:40;;;;;;;;;;;18.80;77.90;;;;;;5049869;28;19920;-70
2022/04/23 14:44:05;;;;;;;;;;;18.90;77.50;;;;;;5068567;22;19932;-68
2022/04/23 14:46:31;;;;;;;;;;;19.00;77.10;;;;;;4990715;28;20017;-69
2022/04/23 14:48:56;;;;;;;;;;;19.00;76.90;;;;;;5000239;28;19917;-66
2022/04/23 14:54:06;;;;;;;;;;;19.10;76.20;;;;;;5016783;28;19924;-67